sensor_id;sensor_type;location;lat;lon;timestamp;P1;durP1;ratioP1;P2;durP2;ratioP2
70796;SDS011;63842;52.144;5.360;2023-03-01T00:02:14;12.98;;;6.38;;
70796;SDS011;63842;52.144;5.360;2023-03-01T00:04:41;13.13;;;6.45;;
70796;SDS011;63842;52.144;5.360;2023-03-01T00:07:09;14.50;;;6.18;;
70796;SDS011;63842;52.144;5.360;2023-03-01T00:09:36;12.32;;;6.45;;
70796;SDS011;63842;52.144;5.360;2023-03-01T00:12:04;12.90;;;6.20;;
70796;SDS011;63842;52.144;5.360;2023-03-01T00:14:31;14.32;;;6.60;;
70796;SDS011;63842;52.144;5.360;2023-03-01T00:16:59;13.10;;;6.50;;
70796;SDS011;63842;52.144;5.360;2023-03-01T00:19:26;13.52;;;6.28;;
70796;SDS011;63842;52.144;5.360;2023-03-01T00:21:53;12.77;;;6.00;;
70796;SDS011;63842;52.144;5.360;2023-03-01T00:24:23;13.77;;;5.90;;
70796;SDS011;63842;52.144;5.360;2023-03-01T00:26:52;12.88;;;6.20;;
70796;SDS011;63842;52.144;5.360;2023-03-01T00:29:22;13.30;;;6.30;;
70796;SDS011;63842;52.144;5.360;2023-03-01T00:31:49;12.60;;;5.97;;
70796;SDS011;63842;52.144;5.360;2023-03-01T00:34:17;13.48;;;6.22;;
70796;SDS011;63842;52.144;5.360;2023-03-01T00:36:44;14.27;;;6.40;;
70796;SDS011;63842;52.144;5.360;2023-03-01T00:39:12;14.32;;;6.30;;
70796;SDS011;63842;52.144;5.360;2023-03-01T00:41:40;14.23;;;6.57;;
70796;SDS011;63842;52.144;5.360;2023-03-01T00:44:08;13.57;;;6.38;;
70796;SDS011;63842;52.144;5.360;2023-03-01T00:46:35;13.02;;;6.47;;
70796;SDS011;63842;52.144;5.360;2023-03-01T00:49:03;12.43;;;6.10;;
70796;SDS011;63842;52.144;5.360;2023-03-01T00:51:30;13.00;;;6.63;;
70796;SDS011;63842;52.144;5.360;2023-03-01T00:53:59;14.80;;;6.95;;
70796;SDS011;63842;52.144;5.360;2023-03-01T00:56:27;14.23;;;6.72;;
70796;SDS011;63842;52.144;5.360;2023-03-01T00:58:55;12.52;;;5.97;;
70796;SDS011;63842;52.144;5.360;2023-03-01T01:01:24;14.75;;;6.63;;
70796;SDS011;63842;52.144;5.360;2023-03-01T01:03:55;12.13;;;6.75;;
70796;SDS011;63842;52.144;5.360;2023-03-01T01:06:24;14.60;;;6.65;;
70796;SDS011;63842;52.144;5.360;2023-03-01T01:08:52;13.10;;;6.50;;
70796;SDS011;63842;52.144;5.360;2023-03-01T01:11:20;13.27;;;6.28;;
70796;SDS011;63842;52.144;5.360;2023-03-01T01:13:48;13.77;;;6.68;;
70796;SDS011;63842;52.144;5.360;2023-03-01T01:16:16;15.40;;;6.57;;
70796;SDS011;63842;52.144;5.360;2023-03-01T01:18:44;13.45;;;6.47;;
70796;SDS011;63842;52.144;5.360;2023-03-01T01:21:12;12.07;;;5.97;;
70796;SDS011;63842;52.144;5.360;2023-03-01T01:23:40;13.05;;;6.53;;
70796;SDS011;63842;52.144;5.360;2023-03-01T01:26:09;14.60;;;6.85;;
70796;SDS011;63842;52.144;5.360;2023-03-01T01:28:37;13.85;;;6.55;;
70796;SDS011;63842;52.144;5.360;2023-03-01T01:31:05;12.43;;;6.25;;
70796;SDS011;63842;52.144;5.360;2023-03-01T01:33:33;13.90;;;6.43;;
70796;SDS011;63842;52.144;5.360;2023-03-01T01:36:00;14.30;;;6.47;;
70796;SDS011;63842;52.144;5.360;2023-03-01T01:38:28;14.55;;;7.65;;
70796;SDS011;63842;52.144;5.360;2023-03-01T01:40:55;15.52;;;7.40;;
70796;SDS011;63842;52.144;5.360;2023-03-01T01:45:50;14.90;;;6.47;;
70796;SDS011;63842;52.144;5.360;2023-03-01T01:48:19;14.20;;;7.53;;
70796;SDS011;63842;52.144;5.360;2023-03-01T01:50:49;14.75;;;7.00;;
70796;SDS011;63842;52.144;5.360;2023-03-01T01:53:18;12.40;;;6.72;;
70796;SDS011;63842;52.144;5.360;2023-03-01T01:55:54;13.55;;;6.65;;
70796;SDS011;63842;52.144;5.360;2023-03-01T01:58:25;14.38;;;7.22;;
70796;SDS011;63842;52.144;5.360;2023-03-01T02:00:53;15.13;;;7.35;;
70796;SDS011;63842;52.144;5.360;2023-03-01T02:03:29;14.73;;;7.55;;
70796;SDS011;63842;52.144;5.360;2023-03-01T02:06:04;16.33;;;6.97;;
70796;SDS011;63842;52.144;5.360;2023-03-01T02:11:00;14.77;;;6.82;;
70796;SDS011;63842;52.144;5.360;2023-03-01T02:13:31;15.65;;;7.25;;
70796;SDS011;63842;52.144;5.360;2023-03-01T02:15:58;15.07;;;7.47;;
70796;SDS011;63842;52.144;5.360;2023-03-01T02:18:26;14.93;;;7.40;;
70796;SDS011;63842;52.144;5.360;2023-03-01T02:21:17;15.55;;;7.38;;
70796;SDS011;63842;52.144;5.360;2023-03-01T02:23:48;15.07;;;7.47;;
70796;SDS011;63842;52.144;5.360;2023-03-01T02:26:20;17.08;;;7.53;;
70796;SDS011;63842;52.144;5.360;2023-03-01T02:28:48;16.15;;;7.28;;
70796;SDS011;63842;52.144;5.360;2023-03-01T02:31:18;14.60;;;7.45;;
70796;SDS011;63842;52.144;5.360;2023-03-01T02:34:05;15.73;;;7.50;;
70796;SDS011;63842;52.144;5.360;2023-03-01T02:36:37;16.25;;;7.93;;
70796;SDS011;63842;52.144;5.360;2023-03-01T02:39:07;15.68;;;7.72;;
70796;SDS011;63842;52.144;5.360;2023-03-01T02:41:41;16.52;;;7.63;;
70796;SDS011;63842;52.144;5.360;2023-03-01T02:44:09;15.77;;;7.55;;
70796;SDS011;63842;52.144;5.360;2023-03-01T02:46:41;16.45;;;7.95;;
70796;SDS011;63842;52.144;5.360;2023-03-01T02:57:17;16.95;;;7.25;;
70796;SDS011;63842;52.144;5.360;2023-03-01T02:59:45;16.00;;;8.15;;
70796;SDS011;63842;52.144;5.360;2023-03-01T03:02:23;16.85;;;7.90;;
70796;SDS011;63842;52.144;5.360;2023-03-01T03:05:19;16.73;;;7.97;;
70796;SDS011;63842;52.144;5.360;2023-03-01T03:07:50;16.83;;;8.70;;
70796;SDS011;63842;52.144;5.360;2023-03-01T03:10:25;15.10;;;7.15;;
70796;SDS011;63842;52.144;5.360;2023-03-01T03:13:00;18.55;;;8.80;;
70796;SDS011;63842;52.144;5.360;2023-03-01T03:15:29;17.05;;;7.55;;
70796;SDS011;63842;52.144;5.360;2023-03-01T03:17:57;18.23;;;8.70;;
70796;SDS011;63842;52.144;5.360;2023-03-01T03:20:26;17.00;;;8.27;;
70796;SDS011;63842;52.144;5.360;2023-03-01T03:22:54;15.38;;;7.68;;
70796;SDS011;63842;52.144;5.360;2023-03-01T03:25:22;18.88;;;8.13;;
70796;SDS011;63842;52.144;5.360;2023-03-01T03:27:51;18.80;;;7.50;;
70796;SDS011;63842;52.144;5.360;2023-03-01T03:30:27;15.82;;;7.93;;
70796;SDS011;63842;52.144;5.360;2023-03-01T03:32:54;16.80;;;7.97;;
70796;SDS011;63842;52.144;5.360;2023-03-01T03:35:23;17.10;;;8.05;;
70796;SDS011;63842;52.144;5.360;2023-03-01T03:37:51;16.45;;;8.35;;
70796;SDS011;63842;52.144;5.360;2023-03-01T03:40:35;16.92;;;8.43;;
70796;SDS011;63842;52.144;5.360;2023-03-01T03:43:04;17.75;;;7.80;;
70796;SDS011;63842;52.144;5.360;2023-03-01T03:45:31;19.30;;;8.88;;
70796;SDS011;63842;52.144;5.360;2023-03-01T03:48:02;17.48;;;9.00;;
70796;SDS011;63842;52.144;5.360;2023-03-01T03:50:30;15.25;;;7.97;;
70796;SDS011;63842;52.144;5.360;2023-03-01T03:53:00;17.55;;;8.70;;
70796;SDS011;63842;52.144;5.360;2023-03-01T03:55:27;17.40;;;8.68;;
70796;SDS011;63842;52.144;5.360;2023-03-01T03:57:57;15.98;;;8.23;;
70796;SDS011;63842;52.144;5.360;2023-03-01T04:00:28;16.50;;;7.25;;
70796;SDS011;63842;52.144;5.360;2023-03-01T04:02:56;16.58;;;8.70;;
70796;SDS011;63842;52.144;5.360;2023-03-01T04:05:23;20.25;;;9.10;;
70796;SDS011;63842;52.144;5.360;2023-03-01T04:07:51;17.48;;;7.80;;
70796;SDS011;63842;52.144;5.360;2023-03-01T04:10:28;15.52;;;8.02;;
70796;SDS011;63842;52.144;5.360;2023-03-01T04:12:55;17.33;;;8.63;;
70796;SDS011;63842;52.144;5.360;2023-03-01T04:15:23;16.50;;;7.55;;
70796;SDS011;63842;52.144;5.360;2023-03-01T04:17:52;17.80;;;8.27;;
70796;SDS011;63842;52.144;5.360;2023-03-01T04:23:02;19.30;;;7.88;;
70796;SDS011;63842;52.144;5.360;2023-03-01T04:25:38;15.23;;;7.65;;
70796;SDS011;63842;52.144;5.360;2023-03-01T04:28:05;17.92;;;7.80;;
70796;SDS011;63842;52.144;5.360;2023-03-01T04:30:32;16.52;;;7.82;;
70796;SDS011;63842;52.144;5.360;2023-03-01T04:33:10;18.05;;;7.97;;
70796;SDS011;63842;52.144;5.360;2023-03-01T04:35:38;16.45;;;7.88;;
70796;SDS011;63842;52.144;5.360;2023-03-01T04:38:06;16.58;;;7.90;;
70796;SDS011;63842;52.144;5.360;2023-03-01T04:40:34;16.58;;;7.43;;
70796;SDS011;63842;52.144;5.360;2023-03-01T04:43:02;17.00;;;8.40;;
70796;SDS011;63842;52.144;5.360;2023-03-01T04:45:31;16.88;;;8.88;;
70796;SDS011;63842;52.144;5.360;2023-03-01T04:48:00;16.30;;;8.52;;
70796;SDS011;63842;52.144;5.360;2023-03-01T04:50:28;19.75;;;8.38;;
70796;SDS011;63842;52.144;5.360;2023-03-01T04:52:56;18.95;;;9.15;;
70796;SDS011;63842;52.144;5.360;2023-03-01T04:55:26;18.45;;;8.45;;
70796;SDS011;63842;52.144;5.360;2023-03-01T04:57:54;18.55;;;8.63;;
70796;SDS011;63842;52.144;5.360;2023-03-01T05:00:22;17.92;;;9.05;;
70796;SDS011;63842;52.144;5.360;2023-03-01T05:02:51;16.48;;;8.40;;
70796;SDS011;63842;52.144;5.360;2023-03-01T05:10:19;17.60;;;7.80;;
70796;SDS011;63842;52.144;5.360;2023-03-01T05:12:47;17.55;;;7.68;;
70796;SDS011;63842;52.144;5.360;2023-03-01T05:15:14;16.45;;;7.82;;
70796;SDS011;63842;52.144;5.360;2023-03-01T05:17:42;16.17;;;7.95;;
70796;SDS011;63842;52.144;5.360;2023-03-01T05:20:10;13.85;;;6.93;;
70796;SDS011;63842;52.144;5.360;2023-03-01T05:22:37;15.93;;;7.00;;
70796;SDS011;63842;52.144;5.360;2023-03-01T05:25:05;15.88;;;7.22;;
70796;SDS011;63842;52.144;5.360;2023-03-01T05:27:33;14.43;;;7.10;;
70796;SDS011;63842;52.144;5.360;2023-03-01T05:30:01;17.05;;;8.07;;
70796;SDS011;63842;52.144;5.360;2023-03-01T05:32:43;15.48;;;7.10;;
70796;SDS011;63842;52.144;5.360;2023-03-01T05:35:12;14.85;;;6.90;;
70796;SDS011;63842;52.144;5.360;2023-03-01T05:37:40;13.45;;;5.85;;
70796;SDS011;63842;52.144;5.360;2023-03-01T05:40:09;15.23;;;7.13;;
70796;SDS011;63842;52.144;5.360;2023-03-01T05:42:45;14.55;;;6.80;;
70796;SDS011;63842;52.144;5.360;2023-03-01T05:45:13;14.93;;;6.72;;
70796;SDS011;63842;52.144;5.360;2023-03-01T05:47:40;13.88;;;6.72;;
70796;SDS011;63842;52.144;5.360;2023-03-01T05:50:12;13.98;;;6.57;;
70796;SDS011;63842;52.144;5.360;2023-03-01T05:52:40;15.88;;;7.45;;
70796;SDS011;63842;52.144;5.360;2023-03-01T05:55:07;15.57;;;6.88;;
70796;SDS011;63842;52.144;5.360;2023-03-01T05:57:35;15.38;;;6.57;;
70796;SDS011;63842;52.144;5.360;2023-03-01T06:00:02;15.35;;;6.43;;
70796;SDS011;63842;52.144;5.360;2023-03-01T06:02:37;16.75;;;7.13;;
70796;SDS011;63842;52.144;5.360;2023-03-01T06:05:06;16.83;;;6.93;;
70796;SDS011;63842;52.144;5.360;2023-03-01T06:07:33;15.88;;;7.20;;
70796;SDS011;63842;52.144;5.360;2023-03-01T06:10:01;16.05;;;6.82;;
70796;SDS011;63842;52.144;5.360;2023-03-01T06:12:35;16.88;;;7.10;;
70796;SDS011;63842;52.144;5.360;2023-03-01T06:15:04;15.50;;;7.13;;
70796;SDS011;63842;52.144;5.360;2023-03-01T06:17:33;14.90;;;7.40;;
70796;SDS011;63842;52.144;5.360;2023-03-01T06:20:04;17.55;;;7.95;;
70796;SDS011;63842;52.144;5.360;2023-03-01T06:22:32;17.27;;;7.68;;
70796;SDS011;63842;52.144;5.360;2023-03-01T06:24:59;18.88;;;8.18;;
70796;SDS011;63842;52.144;5.360;2023-03-01T06:27:27;16.20;;;7.28;;
70796;SDS011;63842;52.144;5.360;2023-03-01T06:29:54;15.85;;;7.55;;
70796;SDS011;63842;52.144;5.360;2023-03-01T06:32:21;15.60;;;7.60;;
70796;SDS011;63842;52.144;5.360;2023-03-01T06:34:49;17.70;;;8.02;;
70796;SDS011;63842;52.144;5.360;2023-03-01T06:37:16;15.82;;;7.65;;
70796;SDS011;63842;52.144;5.360;2023-03-01T06:39:44;16.17;;;7.60;;
70796;SDS011;63842;52.144;5.360;2023-03-01T06:42:11;17.10;;;8.85;;
70796;SDS011;63842;52.144;5.360;2023-03-01T06:44:38;18.08;;;9.30;;
70796;SDS011;63842;52.144;5.360;2023-03-01T06:47:06;20.33;;;8.63;;
70796;SDS011;63842;52.144;5.360;2023-03-01T06:49:33;18.10;;;9.02;;
70796;SDS011;63842;52.144;5.360;2023-03-01T06:52:00;16.75;;;8.20;;
70796;SDS011;63842;52.144;5.360;2023-03-01T06:54:27;18.70;;;8.05;;
70796;SDS011;63842;52.144;5.360;2023-03-01T06:56:55;16.83;;;8.07;;
70796;SDS011;63842;52.144;5.360;2023-03-01T06:59:22;17.17;;;8.20;;
70796;SDS011;63842;52.144;5.360;2023-03-01T07:01:49;17.48;;;7.53;;
70796;SDS011;63842;52.144;5.360;2023-03-01T07:04:17;18.08;;;7.72;;
70796;SDS011;63842;52.144;5.360;2023-03-01T07:06:44;14.82;;;7.28;;
70796;SDS011;63842;52.144;5.360;2023-03-01T07:09:11;18.88;;;7.80;;
70796;SDS011;63842;52.144;5.360;2023-03-01T07:11:39;15.65;;;7.25;;
70796;SDS011;63842;52.144;5.360;2023-03-01T07:14:06;17.10;;;8.20;;
70796;SDS011;63842;52.144;5.360;2023-03-01T07:16:33;19.20;;;8.20;;
70796;SDS011;63842;52.144;5.360;2023-03-01T07:19:01;16.15;;;7.93;;
70796;SDS011;63842;52.144;5.360;2023-03-01T07:21:28;22.98;;;9.50;;
70796;SDS011;63842;52.144;5.360;2023-03-01T07:23:55;24.15;;;9.48;;
70796;SDS011;63842;52.144;5.360;2023-03-01T07:26:23;19.73;;;8.93;;
70796;SDS011;63842;52.144;5.360;2023-03-01T07:28:51;21.10;;;9.05;;
70796;SDS011;63842;52.144;5.360;2023-03-01T07:31:18;21.45;;;9.10;;
70796;SDS011;63842;52.144;5.360;2023-03-01T07:33:46;21.88;;;10.23;;
70796;SDS011;63842;52.144;5.360;2023-03-01T07:36:13;21.80;;;10.07;;
70796;SDS011;63842;52.144;5.360;2023-03-01T07:38:40;21.40;;;9.65;;
70796;SDS011;63842;52.144;5.360;2023-03-01T07:41:08;23.27;;;10.30;;
70796;SDS011;63842;52.144;5.360;2023-03-01T07:43:35;19.63;;;9.73;;
70796;SDS011;63842;52.144;5.360;2023-03-01T07:46:03;19.95;;;9.60;;
70796;SDS011;63842;52.144;5.360;2023-03-01T07:48:31;20.48;;;9.73;;
70796;SDS011;63842;52.144;5.360;2023-03-01T07:50:59;23.30;;;9.80;;
70796;SDS011;63842;52.144;5.360;2023-03-01T07:53:26;21.83;;;10.00;;
70796;SDS011;63842;52.144;5.360;2023-03-01T07:56:01;23.50;;;9.70;;
70796;SDS011;63842;52.144;5.360;2023-03-01T07:58:28;22.58;;;10.70;;
70796;SDS011;63842;52.144;5.360;2023-03-01T08:00:56;21.13;;;10.13;;
70796;SDS011;63842;52.144;5.360;2023-03-01T08:03:23;22.40;;;10.65;;
70796;SDS011;63842;52.144;5.360;2023-03-01T08:05:50;20.63;;;9.80;;
70796;SDS011;63842;52.144;5.360;2023-03-01T08:08:18;22.88;;;10.45;;
70796;SDS011;63842;52.144;5.360;2023-03-01T08:10:45;22.58;;;10.10;;
70796;SDS011;63842;52.144;5.360;2023-03-01T08:13:12;24.77;;;10.38;;
70796;SDS011;63842;52.144;5.360;2023-03-01T08:15:40;21.42;;;10.48;;
70796;SDS011;63842;52.144;5.360;2023-03-01T08:18:07;23.60;;;10.00;;
70796;SDS011;63842;52.144;5.360;2023-03-01T08:20:34;20.42;;;9.43;;
70796;SDS011;63842;52.144;5.360;2023-03-01T08:23:01;21.63;;;9.98;;
70796;SDS011;63842;52.144;5.360;2023-03-01T08:25:29;20.60;;;9.77;;
70796;SDS011;63842;52.144;5.360;2023-03-01T08:27:56;25.27;;;10.45;;
70796;SDS011;63842;52.144;5.360;2023-03-01T08:30:23;19.15;;;9.65;;
70796;SDS011;63842;52.144;5.360;2023-03-01T08:32:51;19.10;;;9.20;;
70796;SDS011;63842;52.144;5.360;2023-03-01T08:35:19;23.65;;;9.98;;
70796;SDS011;63842;52.144;5.360;2023-03-01T08:37:46;17.50;;;8.45;;
70796;SDS011;63842;52.144;5.360;2023-03-01T08:40:13;18.67;;;8.55;;
70796;SDS011;63842;52.144;5.360;2023-03-01T08:42:41;18.67;;;7.88;;
70796;SDS011;63842;52.144;5.360;2023-03-01T08:45:12;18.73;;;8.07;;
70796;SDS011;63842;52.144;5.360;2023-03-01T08:47:44;18.75;;;7.70;;
70796;SDS011;63842;52.144;5.360;2023-03-01T08:50:11;16.15;;;6.97;;
70796;SDS011;63842;52.144;5.360;2023-03-01T08:52:39;19.23;;;7.47;;
70796;SDS011;63842;52.144;5.360;2023-03-01T08:55:06;15.00;;;7.07;;
70796;SDS011;63842;52.144;5.360;2023-03-01T08:57:34;15.32;;;6.65;;
70796;SDS011;63842;52.144;5.360;2023-03-01T09:00:01;17.13;;;7.03;;
70796;SDS011;63842;52.144;5.360;2023-03-01T09:02:29;14.35;;;7.45;;
70796;SDS011;63842;52.144;5.360;2023-03-01T09:04:56;17.75;;;7.35;;
70796;SDS011;63842;52.144;5.360;2023-03-01T09:07:24;15.45;;;7.03;;
70796;SDS011;63842;52.144;5.360;2023-03-01T09:09:54;14.98;;;6.70;;
70796;SDS011;63842;52.144;5.360;2023-03-01T09:12:22;15.77;;;6.30;;
70796;SDS011;63842;52.144;5.360;2023-03-01T09:14:51;16.05;;;7.28;;
70796;SDS011;63842;52.144;5.360;2023-03-01T09:17:18;15.40;;;6.63;;
70796;SDS011;63842;52.144;5.360;2023-03-01T09:19:47;13.68;;;6.60;;
70796;SDS011;63842;52.144;5.360;2023-03-01T09:22:15;13.77;;;6.13;;
70796;SDS011;63842;52.144;5.360;2023-03-01T09:24:43;14.82;;;5.88;;
70796;SDS011;63842;52.144;5.360;2023-03-01T09:27:10;13.25;;;6.03;;
70796;SDS011;63842;52.144;5.360;2023-03-01T09:29:39;12.48;;;5.18;;
70796;SDS011;63842;52.144;5.360;2023-03-01T09:32:06;12.13;;;4.80;;
70796;SDS011;63842;52.144;5.360;2023-03-01T09:34:34;12.82;;;5.60;;
70796;SDS011;63842;52.144;5.360;2023-03-01T09:37:21;10.82;;;4.80;;
70796;SDS011;63842;52.144;5.360;2023-03-01T09:39:49;10.68;;;4.32;;
70796;SDS011;63842;52.144;5.360;2023-03-01T09:42:16;10.23;;;4.15;;
70796;SDS011;63842;52.144;5.360;2023-03-01T09:44:46;12.05;;;4.50;;
70796;SDS011;63842;52.144;5.360;2023-03-01T09:47:19;10.95;;;3.97;;
70796;SDS011;63842;52.144;5.360;2023-03-01T09:49:57;9.88;;;3.88;;
70796;SDS011;63842;52.144;5.360;2023-03-01T09:52:30;10.73;;;4.13;;
70796;SDS011;63842;52.144;5.360;2023-03-01T09:55:01;10.25;;;3.88;;
70796;SDS011;63842;52.144;5.360;2023-03-01T09:57:30;10.25;;;4.05;;
70796;SDS011;63842;52.144;5.360;2023-03-01T10:00:03;12.18;;;4.32;;
70796;SDS011;63842;52.144;5.360;2023-03-01T10:10:36;12.02;;;3.60;;
70796;SDS011;63842;52.144;5.360;2023-03-01T10:13:03;9.35;;;3.45;;
70796;SDS011;63842;52.144;5.360;2023-03-01T10:15:35;8.85;;;3.40;;
70796;SDS011;63842;52.144;5.360;2023-03-01T10:18:12;9.50;;;3.60;;
70796;SDS011;63842;52.144;5.360;2023-03-01T10:21:02;8.18;;;3.22;;
70796;SDS011;63842;52.144;5.360;2023-03-01T10:23:30;8.45;;;3.00;;
70796;SDS011;63842;52.144;5.360;2023-03-01T10:28:29;8.45;;;3.03;;
70796;SDS011;63842;52.144;5.360;2023-03-01T10:30:58;7.80;;;2.53;;
70796;SDS011;63842;52.144;5.360;2023-03-01T10:33:27;7.70;;;2.80;;
70796;SDS011;63842;52.144;5.360;2023-03-01T10:35:56;7.88;;;2.53;;
70796;SDS011;63842;52.144;5.360;2023-03-01T10:38:24;9.60;;;2.80;;
70796;SDS011;63842;52.144;5.360;2023-03-01T10:40:58;8.45;;;2.80;;
70796;SDS011;63842;52.144;5.360;2023-03-01T10:45:54;8.00;;;2.83;;
70796;SDS011;63842;52.144;5.360;2023-03-01T10:48:23;8.25;;;2.83;;
70796;SDS011;63842;52.144;5.360;2023-03-01T10:53:27;9.52;;;3.40;;
70796;SDS011;63842;52.144;5.360;2023-03-01T10:56:05;9.45;;;2.83;;
70796;SDS011;63842;52.144;5.360;2023-03-01T10:58:34;8.15;;;3.00;;
70796;SDS011;63842;52.144;5.360;2023-03-01T11:01:03;9.25;;;2.80;;
70796;SDS011;63842;52.144;5.360;2023-03-01T11:06:05;8.00;;;2.90;;
70796;SDS011;63842;52.144;5.360;2023-03-01T11:08:35;10.43;;;3.40;;
70796;SDS011;63842;52.144;5.360;2023-03-01T11:11:03;8.70;;;2.97;;
70796;SDS011;63842;52.144;5.360;2023-03-01T11:13:31;8.52;;;2.95;;
70796;SDS011;63842;52.144;5.360;2023-03-01T11:16:03;10.25;;;2.90;;
70796;SDS011;63842;52.144;5.360;2023-03-01T11:18:31;9.40;;;2.90;;
70796;SDS011;63842;52.144;5.360;2023-03-01T11:21:12;8.90;;;2.65;;
70796;SDS011;63842;52.144;5.360;2023-03-01T11:23:39;7.60;;;2.47;;
70796;SDS011;63842;52.144;5.360;2023-03-01T11:26:09;6.65;;;2.55;;
70796;SDS011;63842;52.144;5.360;2023-03-01T11:28:39;7.97;;;2.33;;
70796;SDS011;63842;52.144;5.360;2023-03-01T11:31:08;8.02;;;2.30;;
70796;SDS011;63842;52.144;5.360;2023-03-01T11:33:48;8.60;;;2.60;;
70796;SDS011;63842;52.144;5.360;2023-03-01T11:38:57;7.07;;;2.33;;
70796;SDS011;63842;52.144;5.360;2023-03-01T11:41:29;7.90;;;2.50;;
70796;SDS011;63842;52.144;5.360;2023-03-01T11:43:59;8.55;;;2.60;;
70796;SDS011;63842;52.144;5.360;2023-03-01T11:56:55;8.60;;;2.38;;
70796;SDS011;63842;52.144;5.360;2023-03-01T12:07:06;8.25;;;2.70;;
70796;SDS011;63842;52.144;5.360;2023-03-01T12:30:16;9.98;;;2.97;;
70796;SDS011;63842;52.144;5.360;2023-03-01T12:40:37;9.63;;;3.60;;
70796;SDS011;63842;52.144;5.360;2023-03-01T12:51:08;8.60;;;3.15;;
70796;SDS011;63842;52.144;5.360;2023-03-01T12:53:41;8.45;;;3.20;;
70796;SDS011;63842;52.144;5.360;2023-03-01T12:56:10;10.07;;;3.30;;
70796;SDS011;63842;52.144;5.360;2023-03-01T12:58:45;8.48;;;3.05;;
70796;SDS011;63842;52.144;5.360;2023-03-01T13:04:06;8.65;;;2.72;;
70796;SDS011;63842;52.144;5.360;2023-03-01T13:06:43;8.27;;;3.00;;
70796;SDS011;63842;52.144;5.360;2023-03-01T13:11:59;9.65;;;3.45;;
70796;SDS011;63842;52.144;5.360;2023-03-01T13:17:00;9.32;;;3.13;;
70796;SDS011;63842;52.144;5.360;2023-03-01T13:19:28;7.90;;;3.13;;
70796;SDS011;63842;52.144;5.360;2023-03-01T13:21:56;7.60;;;2.60;;
70796;SDS011;63842;52.144;5.360;2023-03-01T13:27:08;9.45;;;2.97;;
70796;SDS011;63842;52.144;5.360;2023-03-01T13:32:23;9.55;;;3.00;;
70796;SDS011;63842;52.144;5.360;2023-03-01T13:37:42;7.55;;;2.72;;
70796;SDS011;63842;52.144;5.360;2023-03-01T13:42:50;7.70;;;3.17;;
70796;SDS011;63842;52.144;5.360;2023-03-01T13:45:38;7.68;;;3.00;;
70796;SDS011;63842;52.144;5.360;2023-03-01T13:51:09;9.05;;;2.80;;
70796;SDS011;63842;52.144;5.360;2023-03-01T13:53:42;7.47;;;3.00;;
70796;SDS011;63842;52.144;5.360;2023-03-01T13:56:26;10.35;;;3.42;;
70796;SDS011;63842;52.144;5.360;2023-03-01T13:58:56;8.77;;;3.50;;
70796;SDS011;63842;52.144;5.360;2023-03-01T14:01:26;9.48;;;3.17;;
70796;SDS011;63842;52.144;5.360;2023-03-01T14:03:55;10.95;;;3.35;;
70796;SDS011;63842;52.144;5.360;2023-03-01T14:06:24;8.02;;;3.17;;
70796;SDS011;63842;52.144;5.360;2023-03-01T14:09:00;9.52;;;3.30;;
70796;SDS011;63842;52.144;5.360;2023-03-01T14:14:26;8.48;;;3.17;;
70796;SDS011;63842;52.144;5.360;2023-03-01T14:17:16;7.65;;;3.08;;
70796;SDS011;63842;52.144;5.360;2023-03-01T14:19:45;8.50;;;2.97;;
70796;SDS011;63842;52.144;5.360;2023-03-01T14:22:23;10.13;;;3.42;;
70796;SDS011;63842;52.144;5.360;2023-03-01T14:27:20;8.63;;;2.90;;
70796;SDS011;63842;52.144;5.360;2023-03-01T14:29:55;9.30;;;3.30;;
70796;SDS011;63842;52.144;5.360;2023-03-01T14:32:27;7.95;;;2.80;;
70796;SDS011;63842;52.144;5.360;2023-03-01T14:34:55;7.65;;;2.83;;
70796;SDS011;63842;52.144;5.360;2023-03-01T14:37:30;8.93;;;2.88;;
70796;SDS011;63842;52.144;5.360;2023-03-01T14:39:59;8.48;;;3.10;;
70796;SDS011;63842;52.144;5.360;2023-03-01T14:42:36;8.45;;;2.85;;
70796;SDS011;63842;52.144;5.360;2023-03-01T14:45:03;10.38;;;3.10;;
70796;SDS011;63842;52.144;5.360;2023-03-01T14:47:32;9.88;;;3.45;;
70796;SDS011;63842;52.144;5.360;2023-03-01T14:50:05;7.32;;;2.85;;
70796;SDS011;63842;52.144;5.360;2023-03-01T14:52:34;8.65;;;2.72;;
70796;SDS011;63842;52.144;5.360;2023-03-01T14:55:09;9.13;;;3.20;;
70796;SDS011;63842;52.144;5.360;2023-03-01T14:57:42;8.55;;;3.28;;
70796;SDS011;63842;52.144;5.360;2023-03-01T15:00:13;9.70;;;2.95;;
70796;SDS011;63842;52.144;5.360;2023-03-01T15:02:43;8.38;;;3.20;;
70796;SDS011;63842;52.144;5.360;2023-03-01T15:05:13;10.38;;;3.38;;
70796;SDS011;63842;52.144;5.360;2023-03-01T15:07:41;8.75;;;3.35;;
70796;SDS011;63842;52.144;5.360;2023-03-01T15:10:22;9.35;;;3.00;;
70796;SDS011;63842;52.144;5.360;2023-03-01T15:12:50;9.50;;;2.78;;
70796;SDS011;63842;52.144;5.360;2023-03-01T15:15:29;10.13;;;3.38;;
70796;SDS011;63842;52.144;5.360;2023-03-01T15:17:58;8.00;;;2.95;;
70796;SDS011;63842;52.144;5.360;2023-03-01T15:20:27;10.02;;;2.95;;
70796;SDS011;63842;52.144;5.360;2023-03-01T15:22:55;8.90;;;3.10;;
70796;SDS011;63842;52.144;5.360;2023-03-01T15:25:24;8.40;;;3.42;;
70796;SDS011;63842;52.144;5.360;2023-03-01T15:27:52;11.65;;;3.03;;
70796;SDS011;63842;52.144;5.360;2023-03-01T15:30:25;9.23;;;3.83;;
70796;SDS011;63842;52.144;5.360;2023-03-01T15:35:46;11.38;;;3.42;;
70796;SDS011;63842;52.144;5.360;2023-03-01T15:38:25;11.73;;;5.63;;
70796;SDS011;63842;52.144;5.360;2023-03-01T15:40:53;9.98;;;3.58;;
70796;SDS011;63842;52.144;5.360;2023-03-01T15:43:37;9.20;;;3.20;;
70796;SDS011;63842;52.144;5.360;2023-03-01T15:46:05;8.95;;;3.05;;
70796;SDS011;63842;52.144;5.360;2023-03-01T15:48:33;9.15;;;3.13;;
70796;SDS011;63842;52.144;5.360;2023-03-01T15:51:01;9.15;;;3.13;;
70796;SDS011;63842;52.144;5.360;2023-03-01T15:53:28;8.75;;;3.10;;
70796;SDS011;63842;52.144;5.360;2023-03-01T15:55:56;8.63;;;3.30;;
70796;SDS011;63842;52.144;5.360;2023-03-01T15:58:24;9.65;;;3.20;;
70796;SDS011;63842;52.144;5.360;2023-03-01T16:00:51;9.82;;;3.25;;
70796;SDS011;63842;52.144;5.360;2023-03-01T16:03:27;11.00;;;3.45;;
70796;SDS011;63842;52.144;5.360;2023-03-01T16:05:54;9.02;;;3.38;;
70796;SDS011;63842;52.144;5.360;2023-03-01T16:08:22;9.00;;;3.50;;
70796;SDS011;63842;52.144;5.360;2023-03-01T16:10:49;9.38;;;3.40;;
70796;SDS011;63842;52.144;5.360;2023-03-01T16:13:18;8.65;;;2.97;;
70796;SDS011;63842;52.144;5.360;2023-03-01T16:15:45;8.15;;;3.00;;
70796;SDS011;63842;52.144;5.360;2023-03-01T16:18:13;9.50;;;3.72;;
70796;SDS011;63842;52.144;5.360;2023-03-01T16:20:41;16.17;;;5.20;;
70796;SDS011;63842;52.144;5.360;2023-03-01T16:23:10;9.88;;;4.15;;
70796;SDS011;63842;52.144;5.360;2023-03-01T16:25:38;12.43;;;4.70;;
70796;SDS011;63842;52.144;5.360;2023-03-01T16:28:05;10.52;;;4.63;;
70796;SDS011;63842;52.144;5.360;2023-03-01T16:30:37;10.95;;;5.10;;
70796;SDS011;63842;52.144;5.360;2023-03-01T16:33:06;10.93;;;4.10;;
70796;SDS011;63842;52.144;5.360;2023-03-01T16:35:55;10.27;;;4.20;;
70796;SDS011;63842;52.144;5.360;2023-03-01T16:38:22;10.70;;;3.53;;
70796;SDS011;63842;52.144;5.360;2023-03-01T16:40:50;9.63;;;3.13;;
70796;SDS011;63842;52.144;5.360;2023-03-01T16:43:18;10.45;;;3.78;;
70796;SDS011;63842;52.144;5.360;2023-03-01T16:45:45;9.52;;;3.60;;
70796;SDS011;63842;52.144;5.360;2023-03-01T16:48:13;9.50;;;3.60;;
70796;SDS011;63842;52.144;5.360;2023-03-01T16:50:40;10.10;;;3.60;;
70796;SDS011;63842;52.144;5.360;2023-03-01T16:53:08;10.18;;;3.70;;
70796;SDS011;63842;52.144;5.360;2023-03-01T16:55:35;10.15;;;3.97;;
70796;SDS011;63842;52.144;5.360;2023-03-01T16:58:04;10.10;;;3.60;;
70796;SDS011;63842;52.144;5.360;2023-03-01T17:00:31;10.23;;;3.58;;